Ralston, Oklahoma
Current Conditions -  °F | °C
As of 1:53 PM on Thursday 30 Oct 2014 (Local Time) from KPNC Reporting Station
Clear Clear  
Wind Chill: 24°   Ceiling: Unl
Heat Index: 24°   Visibility: 10mi
Dew Point:   Wind: 21mph
Humidity: 25%   Direction: 360°N
Pressure: 30.11"   Gusts: 24mph
Location:  36.5°N, 96.73°W
Report Text: KPNC 301853Z AUTO 36018G21KT 10SM CLR 24/03 A3011 RMK AO2 PK WND 36027/1825 SLP188 T02390028
Loading
Personal Weather Stations






























Interactive Weather Map
Tropical Storm Tracking
New forecast layout! Learn more

10-Day Weather Forecast

Advertisements
Track Severe Weather on mobile